createdAt,value
2018-06-29T00:00:15.345Z,4.30
2018-06-29T00:01:15.390Z,4.80
2018-06-29T00:02:15.425Z,4.80
2018-06-29T00:03:15.473Z,4.80
2018-06-29T00:04:15.518Z,4.80
2018-06-29T00:05:15.547Z,5.00
2018-06-29T00:06:15.585Z,5.00
2018-06-29T00:07:15.623Z,5.30
2018-06-29T00:08:15.663Z,4.90
2018-06-29T00:09:15.719Z,4.90
2018-06-29T00:10:15.744Z,5.00
2018-06-29T00:11:15.781Z,5.50
2018-06-29T00:12:15.823Z,5.00
2018-06-29T00:13:15.866Z,5.10
2018-06-29T00:14:15.901Z,4.90
2018-06-29T00:15:15.940Z,5.30
2018-06-29T00:16:15.979Z,5.30
2018-06-29T00:17:16.022Z,5.10
2018-06-29T00:18:16.067Z,5.00
2018-06-29T00:19:16.106Z,4.90
2018-06-29T00:20:16.140Z,5.30
2018-06-29T00:21:16.183Z,4.80
2018-06-29T00:22:16.219Z,5.50
2018-06-29T00:23:16.258Z,5.50
2018-06-29T00:24:16.297Z,5.50
2018-06-29T00:25:16.336Z,5.20
2018-06-29T00:26:16.376Z,5.00
2018-06-29T00:27:16.416Z,5.70
2018-06-29T00:28:16.456Z,5.40
2018-06-29T00:29:16.497Z,5.20
2018-06-29T00:30:16.533Z,5.40
2018-06-29T00:31:16.580Z,5.20
2018-06-29T00:32:16.620Z,5.10
2018-06-29T00:33:16.654Z,5.20
2018-06-29T00:34:16.693Z,5.10
2018-06-29T00:35:16.736Z,4.70
2018-06-29T00:36:16.771Z,5.20
2018-06-29T00:37:16.811Z,5.80
2018-06-29T00:38:16.856Z,5.50
2018-06-29T00:39:16.897Z,6.00
2018-06-29T00:40:16.930Z,5.50
2018-06-29T00:41:16.969Z,5.50
2018-06-29T00:42:17.008Z,5.30
2018-06-29T00:43:17.048Z,5.60
2018-06-29T00:44:17.086Z,5.40
2018-06-29T00:45:17.135Z,5.10
2018-06-29T00:46:17.175Z,5.30
2018-06-29T00:47:17.205Z,5.50
2018-06-29T00:48:17.244Z,5.30
2018-06-29T00:49:17.284Z,5.40
2018-06-29T00:50:17.323Z,5.40
2018-06-29T00:51:17.363Z,5.40
2018-06-29T00:52:17.410Z,5.30
2018-06-29T00:53:17.441Z,5.70
2018-06-29T00:54:17.482Z,5.20
2018-06-29T00:55:17.541Z,5.80
2018-06-29T00:56:17.559Z,5.30
2018-06-29T00:57:17.602Z,5.70
2018-06-29T00:58:17.645Z,5.80
2018-06-29T00:59:17.678Z,5.60
2018-06-29T01:00:17.716Z,5.40
2018-06-29T01:01:17.755Z,5.60
2018-06-29T01:02:17.793Z,5.30
2018-06-29T01:03:17.838Z,5.50
2018-06-29T01:04:17.875Z,5.30
2018-06-29T01:05:17.911Z,5.70
2018-06-29T01:06:17.950Z,5.70
2018-06-29T01:07:17.991Z,6.00
2018-06-29T01:08:18.136Z,5.70
2018-06-29T01:09:18.068Z,5.80
2018-06-29T01:10:18.106Z,5.90
2018-06-29T01:11:18.146Z,6.00
2018-06-29T01:12:18.184Z,5.90
2018-06-29T01:13:18.223Z,5.70
2018-06-29T01:14:18.263Z,5.90
2018-06-29T01:15:18.303Z,5.50
2018-06-29T01:16:18.342Z,5.70
2018-06-29T01:17:18.379Z,5.40
2018-06-29T01:18:18.417Z,5.50
2018-06-29T01:19:18.457Z,5.20
2018-06-29T01:20:18.497Z,5.30
2018-06-29T01:21:18.535Z,5.20
2018-06-29T01:22:18.575Z,5.10
2018-06-29T01:23:18.613Z,5.10
2018-06-29T01:24:18.653Z,5.30
2018-06-29T01:25:18.690Z,5.50
2018-06-29T01:26:18.741Z,5.20
2018-06-29T01:27:18.771Z,5.10
2018-06-29T01:28:18.808Z,5.20
2018-06-29T01:29:18.849Z,4.90
2018-06-29T01:30:18.890Z,5.30
2018-06-29T01:31:18.929Z,5.30
2018-06-29T01:32:19.013Z,5.60
2018-06-29T01:33:19.005Z,6.00
2018-06-29T01:34:19.042Z,5.20
2018-06-29T01:35:19.083Z,5.70
2018-06-29T01:36:19.123Z,5.40
2018-06-29T01:37:19.160Z,5.40
2018-06-29T01:38:19.201Z,5.80
2018-06-29T01:39:19.237Z,5.70
2018-06-29T01:40:19.276Z,6.00
2018-06-29T01:41:19.362Z,5.70
2018-06-29T01:42:19.354Z,5.30
2018-06-29T01:43:19.396Z,5.70
2018-06-29T01:44:19.434Z,5.70
2018-06-29T01:45:19.472Z,5.70
2018-06-29T01:46:19.511Z,5.80
2018-06-29T01:47:19.551Z,5.60
2018-06-29T01:48:19.588Z,5.60
2018-06-29T01:49:19.628Z,5.60
2018-06-29T01:50:19.666Z,5.50
2018-06-29T01:51:19.712Z,5.50
2018-06-29T01:52:19.837Z,5.50
2018-06-29T01:53:19.786Z,5.60
2018-06-29T01:54:19.825Z,5.40
2018-06-29T01:55:19.863Z,5.80
2018-06-29T01:56:19.902Z,5.50
2018-06-29T01:57:19.950Z,5.50
2018-06-29T01:58:19.981Z,5.70
2018-06-29T01:59:20.019Z,5.40
2018-06-29T02:00:20.059Z,5.50
2018-06-29T02:01:20.098Z,5.40
2018-06-29T02:02:20.187Z,5.30
2018-06-29T02:03:20.177Z,5.40
2018-06-29T02:04:20.216Z,5.50
2018-06-29T02:05:20.254Z,5.60
2018-06-29T02:06:20.297Z,5.40
2018-06-29T02:07:20.334Z,5.90
2018-06-29T02:08:20.373Z,5.40
2018-06-29T02:09:20.511Z,5.50
2018-06-29T02:10:20.449Z,5.10
2018-06-29T02:11:20.489Z,5.10
2018-06-29T02:12:20.529Z,4.90
2018-06-29T02:13:20.567Z,5.00
2018-06-29T02:14:20.607Z,4.90
2018-06-29T02:15:20.645Z,5.40
2018-06-29T02:16:20.685Z,5.10
2018-06-29T02:17:20.725Z,4.70
2018-06-29T02:18:20.763Z,4.70
2018-06-29T02:19:20.803Z,4.80
2018-06-29T02:20:20.840Z,4.60
2018-06-29T02:21:20.888Z,5.30
2018-06-29T02:22:20.921Z,4.70
2018-06-29T02:23:20.964Z,5.30
2018-06-29T02:24:21.000Z,4.80
2018-06-29T02:25:21.038Z,5.00
2018-06-29T02:26:21.076Z,5.10
2018-06-29T02:27:21.116Z,4.90
2018-06-29T02:28:21.154Z,4.90
2018-06-29T02:29:21.194Z,4.80
2018-06-29T02:30:21.238Z,4.90
2018-06-29T02:31:21.273Z,5.10
2018-06-29T02:32:21.311Z,5.10
2018-06-29T02:33:21.351Z,5.30
2018-06-29T02:34:21.393Z,5.10
2018-06-29T02:35:21.430Z,4.90
2018-06-29T02:36:21.469Z,5.00
2018-06-29T02:37:21.510Z,5.20
2018-06-29T02:38:21.549Z,5.20
2018-06-29T02:39:21.588Z,4.80
2018-06-29T02:40:21.628Z,5.00
2018-06-29T02:41:21.675Z,4.90
2018-06-29T02:42:21.706Z,5.00
2018-06-29T02:43:21.750Z,4.90
2018-06-29T02:44:21.785Z,5.90
2018-06-29T02:45:21.824Z,6.50
2018-06-29T02:46:21.862Z,5.30
2018-06-29T02:47:21.911Z,4.90
2018-06-29T02:48:21.940Z,8.60
2018-06-29T02:49:21.979Z,11.90
2018-06-29T02:50:22.021Z,5.50
2018-06-29T02:51:22.058Z,5.30
2018-06-29T02:52:22.097Z,5.80
2018-06-29T02:53:22.140Z,5.20
2018-06-29T02:54:22.186Z,5.40
2018-06-29T02:55:22.216Z,5.60
2018-06-29T02:56:22.255Z,5.20
2018-06-29T02:57:22.295Z,5.50
2018-06-29T02:58:22.340Z,5.40
2018-06-29T02:59:22.378Z,5.60
2018-06-29T03:00:22.424Z,5.40
2018-06-29T03:01:22.453Z,5.70
2018-06-29T03:02:22.491Z,5.80
2018-06-29T03:03:22.533Z,5.90
2018-06-29T03:04:22.571Z,6.20
2018-06-29T03:05:22.616Z,5.70
2018-06-29T03:06:22.652Z,6.40
2018-06-29T03:07:22.692Z,5.60
2018-06-29T03:08:22.730Z,5.50
2018-06-29T03:09:22.766Z,5.60
2018-06-29T03:10:22.805Z,4.90
2018-06-29T03:11:22.844Z,4.80
2018-06-29T03:12:22.882Z,5.20
2018-06-29T03:13:22.924Z,5.20
2018-06-29T03:14:22.962Z,5.20
2018-06-29T03:15:23.002Z,5.10
2018-06-29T03:16:23.040Z,4.80
2018-06-29T03:17:23.078Z,5.00
2018-06-29T03:18:23.117Z,5.10
2018-06-29T03:19:23.158Z,8.40
2018-06-29T03:20:23.198Z,5.00
2018-06-29T03:21:23.236Z,4.80
2018-06-29T03:22:23.274Z,4.70
2018-06-29T03:23:23.322Z,5.00
2018-06-29T03:24:23.357Z,4.80
2018-06-29T03:25:23.391Z,4.90
2018-06-29T03:26:23.432Z,4.90
2018-06-29T03:27:23.471Z,4.90
2018-06-29T03:28:23.509Z,4.80
2018-06-29T03:29:23.550Z,5.10
2018-06-29T03:30:23.589Z,4.70
2018-06-29T03:31:23.630Z,4.70
2018-06-29T03:32:23.668Z,5.30
2018-06-29T03:33:23.707Z,4.70
2018-06-29T03:34:23.749Z,4.80
2018-06-29T03:35:23.788Z,5.00
2018-06-29T03:36:23.832Z,4.90
2018-06-29T03:37:23.863Z,4.80
2018-06-29T03:38:23.915Z,4.90
2018-06-29T03:39:23.942Z,5.00
2018-06-29T03:40:24.022Z,5.50
2018-06-29T03:41:24.020Z,5.00
2018-06-29T03:42:24.064Z,5.40
2018-06-29T03:43:24.101Z,4.90
2018-06-29T03:44:24.137Z,6.30
2018-06-29T03:45:24.184Z,5.30
2018-06-29T03:46:24.219Z,5.00
2018-06-29T03:47:24.258Z,5.10
2018-06-29T03:48:24.296Z,5.30
2018-06-29T03:49:24.340Z,5.10
2018-06-29T03:50:24.378Z,5.10
2018-06-29T03:51:24.419Z,5.20
2018-06-29T03:52:24.452Z,6.30
2018-06-29T03:53:24.491Z,5.30
2018-06-29T03:54:24.531Z,5.30
2018-06-29T03:55:24.574Z,5.50
2018-06-29T03:56:24.607Z,6.00
2018-06-29T03:57:24.673Z,5.80
2018-06-29T03:58:24.686Z,5.30
2018-06-29T03:59:24.724Z,5.10
2018-06-29T04:00:24.764Z,5.20
2018-06-29T04:01:24.804Z,5.50
2018-06-29T04:02:24.841Z,5.50
2018-06-29T04:03:24.933Z,5.20
2018-06-29T04:04:24.919Z,5.40
2018-06-29T04:05:24.962Z,6.00
2018-06-29T04:06:24.997Z,5.10
2018-06-29T04:07:25.039Z,5.10
2018-06-29T04:08:25.077Z,5.10
2018-06-29T04:09:25.119Z,5.00
2018-06-29T04:10:25.155Z,5.10
2018-06-29T04:11:25.192Z,5.30
2018-06-29T04:12:25.231Z,5.20
2018-06-29T04:13:25.269Z,4.80
2018-06-29T04:14:25.310Z,4.80
2018-06-29T04:15:25.349Z,4.80
2018-06-29T04:16:25.386Z,4.60
2018-06-29T04:17:25.432Z,5.00
2018-06-29T04:18:25.464Z,4.70
2018-06-29T04:19:25.504Z,5.20
2018-06-29T04:20:25.542Z,5.00
2018-06-29T04:21:25.581Z,5.20
2018-06-29T04:22:25.620Z,5.00
2018-06-29T04:23:25.659Z,4.90
2018-06-29T04:24:25.697Z,4.90
2018-06-29T04:25:25.744Z,4.70
2018-06-29T04:26:25.803Z,5.00
2018-06-29T04:27:25.815Z,5.20
2018-06-29T04:28:25.852Z,4.80
2018-06-29T04:29:25.893Z,4.90
2018-06-29T04:30:25.935Z,5.00
2018-06-29T04:31:25.976Z,4.50
2018-06-29T04:32:26.008Z,4.70
2018-06-29T04:33:26.053Z,4.90
2018-06-29T04:34:26.087Z,4.70
2018-06-29T04:35:26.127Z,4.70
2018-06-29T04:36:26.168Z,4.90
2018-06-29T04:37:26.202Z,5.40
2018-06-29T04:38:26.252Z,4.60
2018-06-29T04:39:26.282Z,4.80
2018-06-29T04:40:26.321Z,4.50
2018-06-29T04:41:26.363Z,4.40
2018-06-29T04:42:26.404Z,4.60
2018-06-29T04:43:26.438Z,4.40
2018-06-29T04:44:26.477Z,4.60
2018-06-29T04:45:26.516Z,4.50
2018-06-29T04:46:26.556Z,4.70
2018-06-29T04:47:26.597Z,4.40
2018-06-29T04:48:26.632Z,4.20
2018-06-29T04:49:26.671Z,4.60
2018-06-29T04:50:26.711Z,4.30
2018-06-29T04:51:26.752Z,4.60
2018-06-29T04:52:26.887Z,4.20
2018-06-29T04:53:26.826Z,4.40
2018-06-29T04:54:26.866Z,4.60
2018-06-29T04:55:26.906Z,4.00
2018-06-29T04:56:26.943Z,4.00
2018-06-29T04:57:26.984Z,4.50
2018-06-29T04:58:27.022Z,4.00
2018-06-29T04:59:27.063Z,3.80
2018-06-29T05:00:27.101Z,4.20
2018-06-29T05:01:27.139Z,3.80
2018-06-29T05:02:27.181Z,4.10
2018-06-29T05:03:27.219Z,3.90
2018-06-29T05:04:27.257Z,3.70
2018-06-29T05:05:27.298Z,3.80
2018-06-29T05:06:27.339Z,4.10
2018-06-29T05:07:27.376Z,3.70
2018-06-29T05:08:27.414Z,3.60
2018-06-29T05:09:27.453Z,3.90
2018-06-29T05:10:27.494Z,4.20
2018-06-29T05:11:27.532Z,4.10
2018-06-29T05:12:27.571Z,3.90
2018-06-29T05:13:27.609Z,3.90
2018-06-29T05:14:27.653Z,4.00
2018-06-29T05:15:27.756Z,3.50
2018-06-29T05:16:27.728Z,4.20
2018-06-29T05:17:27.772Z,3.80
2018-06-29T05:18:27.814Z,3.60
2018-06-29T05:19:27.846Z,3.70
2018-06-29T05:20:27.887Z,3.40
2018-06-29T05:21:27.924Z,3.50
2018-06-29T05:22:27.964Z,3.80
2018-06-29T05:23:28.004Z,3.70
2018-06-29T05:24:28.043Z,3.80
2018-06-29T05:25:28.083Z,4.00
2018-06-29T05:26:28.124Z,3.70
2018-06-29T05:27:28.167Z,4.20
2018-06-29T05:28:28.226Z,3.70
2018-06-29T05:29:28.246Z,3.80
2018-06-29T05:30:28.292Z,3.70
2018-06-29T05:31:28.324Z,3.30
2018-06-29T05:32:28.364Z,3.70
2018-06-29T05:33:28.402Z,4.00
2018-06-29T05:34:28.443Z,3.70
2018-06-29T05:35:28.486Z,3.30
2018-06-29T05:36:28.534Z,3.40
2018-06-29T05:37:28.565Z,3.70
2018-06-29T05:38:28.606Z,3.30
2018-06-29T05:39:28.647Z,3.40
2018-06-29T05:40:28.686Z,3.30
2018-06-29T05:41:28.804Z,3.40
2018-06-29T05:42:28.770Z,3.60
2018-06-29T05:43:28.808Z,3.20
2018-06-29T05:44:28.846Z,3.50
2018-06-29T05:45:28.887Z,3.40
2018-06-29T05:46:28.929Z,3.50
2018-06-29T05:47:28.967Z,3.20
2018-06-29T05:48:29.018Z,3.50
2018-06-29T05:49:29.050Z,3.00
2018-06-29T05:50:29.089Z,3.10
2018-06-29T05:51:29.130Z,3.30
2018-06-29T05:52:29.170Z,3.40
2018-06-29T05:53:29.210Z,3.20
2018-06-29T05:54:29.250Z,3.10
2018-06-29T05:55:29.290Z,3.20
2018-06-29T05:56:29.335Z,3.20
2018-06-29T05:57:29.403Z,3.40
2018-06-29T05:58:29.412Z,3.40
2018-06-29T05:59:29.456Z,3.10
2018-06-29T06:00:29.492Z,3.50
2018-06-29T06:01:29.535Z,3.00
2018-06-29T06:02:29.572Z,3.10
2018-06-29T06:03:29.614Z,3.50
2018-06-29T06:04:29.653Z,3.10
2018-06-29T06:05:29.693Z,3.30
2018-06-29T06:06:29.739Z,3.10
2018-06-29T06:07:29.777Z,3.00
2018-06-29T06:08:29.815Z,3.20
2018-06-29T06:09:29.856Z,3.10
2018-06-29T06:10:29.900Z,3.10
2018-06-29T06:11:29.937Z,3.30
2018-06-29T06:12:29.985Z,2.80
2018-06-29T06:13:30.050Z,2.90
2018-06-29T06:14:30.072Z,3.20
2018-06-29T06:15:30.101Z,3.10
2018-06-29T06:16:30.140Z,3.20
2018-06-29T06:17:30.187Z,3.10
2018-06-29T06:18:30.223Z,2.90
2018-06-29T06:19:30.264Z,3.20
2018-06-29T06:20:30.300Z,3.30
2018-06-29T06:21:30.342Z,3.10
2018-06-29T06:22:30.382Z,3.20
2018-06-29T06:23:30.426Z,3.10
2018-06-29T06:24:30.462Z,3.00
2018-06-29T06:25:30.504Z,3.00
2018-06-29T06:26:30.545Z,2.90
2018-06-29T06:27:30.586Z,3.00
2018-06-29T06:28:30.625Z,2.90
2018-06-29T06:29:30.666Z,3.20
2018-06-29T06:30:30.708Z,3.10
2018-06-29T06:31:30.751Z,3.00
2018-06-29T06:32:30.789Z,3.30
2018-06-29T06:33:30.831Z,3.30
2018-06-29T06:34:30.881Z,3.30
2018-06-29T06:35:30.922Z,3.10
2018-06-29T06:36:30.953Z,2.80
2018-06-29T06:37:31.010Z,3.00
2018-06-29T06:38:31.036Z,2.90
2018-06-29T06:39:31.073Z,2.70
2018-06-29T06:40:31.117Z,2.70
2018-06-29T06:41:31.211Z,2.90
2018-06-29T06:42:31.200Z,2.90
2018-06-29T06:43:31.240Z,2.70
2018-06-29T06:44:31.288Z,2.90
2018-06-29T06:45:31.325Z,2.90
2018-06-29T06:46:31.363Z,2.90
2018-06-29T06:47:31.421Z,3.10
2018-06-29T06:48:31.453Z,2.80
2018-06-29T06:49:31.487Z,2.70
2018-06-29T06:50:31.528Z,2.80
2018-06-29T06:51:31.571Z,3.10
2018-06-29T06:52:31.609Z,2.90
2018-06-29T06:53:31.661Z,2.90
2018-06-29T06:54:31.694Z,2.90
2018-06-29T06:55:31.735Z,2.70
2018-06-29T06:56:31.776Z,2.90
2018-06-29T06:57:31.876Z,2.90
2018-06-29T06:58:31.858Z,3.00
2018-06-29T06:59:31.963Z,2.80
2018-06-29T07:00:31.943Z,2.70
2018-06-29T07:01:31.982Z,2.80
2018-06-29T07:02:32.023Z,2.80
2018-06-29T07:03:32.065Z,2.70
2018-06-29T07:04:32.107Z,2.60
2018-06-29T07:05:32.151Z,2.20
2018-06-29T07:06:32.199Z,2.80
2018-06-29T07:07:32.234Z,2.40
2018-06-29T07:08:32.273Z,2.60
2018-06-29T07:09:32.318Z,2.20
2018-06-29T07:10:32.359Z,2.10
2018-06-29T07:11:32.399Z,2.10
2018-06-29T07:12:32.487Z,2.10
2018-06-29T07:13:32.481Z,1.90
2018-06-29T07:14:32.523Z,2.30
2018-06-29T07:15:32.567Z,1.80
2018-06-29T07:16:32.606Z,2.00
2018-06-29T07:17:32.644Z,2.00
2018-06-29T07:18:32.688Z,2.00
2018-06-29T07:19:32.733Z,2.10
2018-06-29T07:20:32.770Z,2.00
2018-06-29T07:21:32.820Z,2.10
2018-06-29T07:22:32.855Z,1.90
2018-06-29T07:23:32.897Z,2.00
2018-06-29T07:24:33.054Z,2.10
2018-06-29T07:25:32.979Z,2.00
2018-06-29T07:26:33.021Z,2.00
2018-06-29T07:27:33.062Z,2.00
2018-06-29T07:28:33.104Z,2.00
2018-06-29T07:29:33.149Z,2.10
2018-06-29T07:30:33.188Z,2.30
2018-06-29T07:31:33.232Z,2.00
2018-06-29T07:32:33.272Z,2.00
2018-06-29T07:33:33.313Z,2.10
2018-06-29T07:34:33.356Z,2.20
2018-06-29T07:35:33.398Z,2.20
2018-06-29T07:36:33.438Z,2.20
2018-06-29T07:37:33.479Z,2.10
2018-06-29T07:38:33.589Z,2.00
2018-06-29T07:39:33.563Z,2.20
2018-06-29T07:40:33.605Z,2.20
2018-06-29T07:41:33.649Z,2.10
2018-06-29T07:42:33.690Z,2.20
2018-06-29T07:43:33.731Z,2.00
2018-06-29T07:44:33.772Z,2.00
2018-06-29T07:45:33.817Z,1.90
2018-06-29T07:46:33.860Z,2.00
2018-06-29T07:47:33.898Z,2.00
2018-06-29T07:48:33.941Z,1.90
2018-06-29T07:49:33.989Z,2.10
2018-06-29T07:50:34.023Z,2.30
2018-06-29T07:51:34.066Z,2.10
2018-06-29T07:52:34.114Z,2.10
2018-06-29T07:53:34.150Z,2.10
2018-06-29T07:54:34.193Z,2.10
2018-06-29T07:55:34.241Z,1.70
2018-06-29T07:56:34.280Z,2.20
2018-06-29T07:57:34.320Z,2.10
2018-06-29T07:58:34.454Z,1.90
2018-06-29T07:59:34.411Z,1.90
2018-06-29T08:00:34.445Z,2.00
2018-06-29T08:01:34.487Z,2.00
2018-06-29T08:02:34.608Z,1.90
2018-06-29T08:03:34.573Z,1.80
2018-06-29T08:04:34.614Z,2.00
2018-06-29T08:05:34.662Z,1.90
2018-06-29T08:06:34.697Z,1.90
2018-06-29T08:07:34.741Z,1.80
2018-06-29T08:08:34.782Z,1.70
2018-06-29T08:09:34.829Z,1.80
2018-06-29T08:10:34.924Z,1.90
2018-06-29T08:11:34.913Z,1.70
2018-06-29T08:12:34.959Z,1.80
2018-06-29T08:13:34.994Z,1.80
2018-06-29T08:14:35.034Z,1.80
2018-06-29T08:15:35.078Z,1.70
2018-06-29T08:16:35.117Z,1.70
2018-06-29T08:17:35.159Z,1.70
2018-06-29T08:18:35.202Z,1.60
2018-06-29T08:19:35.245Z,1.60
2018-06-29T08:20:35.285Z,1.80
2018-06-29T08:21:35.346Z,1.80
2018-06-29T08:22:35.370Z,2.10
2018-06-29T08:23:35.424Z,1.80
2018-06-29T08:24:35.455Z,1.80
2018-06-29T08:25:35.498Z,1.90
2018-06-29T08:26:35.550Z,1.80
2018-06-29T08:27:35.585Z,2.00
2018-06-29T08:28:35.622Z,1.70
2018-06-29T08:29:35.665Z,1.70
2018-06-29T08:30:35.708Z,1.80
2018-06-29T08:31:35.755Z,1.50
2018-06-29T08:32:35.792Z,2.00
2018-06-29T08:33:35.835Z,1.90
2018-06-29T08:34:35.879Z,2.00
2018-06-29T08:35:35.922Z,1.90
2018-06-29T08:36:35.967Z,1.80
2018-06-29T08:37:36.018Z,1.70
2018-06-29T08:38:36.072Z,1.70
2018-06-29T08:39:36.088Z,1.90
2018-06-29T08:40:36.131Z,2.10
2018-06-29T08:41:36.173Z,2.00
2018-06-29T08:42:36.216Z,2.00
2018-06-29T08:43:36.258Z,1.90
2018-06-29T08:44:36.301Z,1.90
2018-06-29T08:45:36.343Z,1.80
2018-06-29T08:46:36.392Z,1.80
2018-06-29T08:47:36.428Z,2.00
2018-06-29T08:48:36.469Z,2.00
2018-06-29T08:49:36.553Z,1.70
2018-06-29T08:50:36.555Z,1.80
2018-06-29T08:51:36.609Z,1.60
2018-06-29T08:52:36.639Z,1.80
2018-06-29T08:53:36.682Z,1.80
2018-06-29T08:54:36.725Z,1.90
2018-06-29T08:55:36.769Z,1.90
2018-06-29T08:56:36.810Z,1.60
2018-06-29T08:57:36.853Z,1.80
2018-06-29T08:58:36.897Z,2.10
2018-06-29T08:59:36.937Z,1.90
2018-06-29T09:00:36.985Z,2.10
2018-06-29T09:01:37.023Z,2.00
2018-06-29T09:02:37.067Z,1.70
2018-06-29T09:03:37.110Z,1.80
2018-06-29T09:04:37.151Z,1.70
2018-06-29T09:05:37.195Z,1.60
2018-06-29T09:06:37.244Z,1.90
2018-06-29T09:07:37.279Z,1.70
2018-06-29T09:08:37.323Z,1.90
2018-06-29T09:09:37.364Z,2.00
2018-06-29T09:10:37.407Z,1.80
2018-06-29T09:11:37.450Z,1.80
2018-06-29T09:12:37.493Z,1.80
2018-06-29T09:13:37.534Z,1.80
2018-06-29T09:14:37.579Z,1.80
2018-06-29T09:15:37.622Z,1.70
2018-06-29T09:16:37.664Z,1.80
2018-06-29T09:17:37.707Z,1.80
2018-06-29T09:18:37.754Z,1.80
2018-06-29T09:19:37.791Z,1.70
2018-06-29T09:20:37.842Z,1.90
2018-06-29T09:21:37.882Z,1.60
2018-06-29T09:22:37.921Z,2.20
2018-06-29T09:23:37.964Z,2.20
2018-06-29T09:24:38.012Z,1.80
2018-06-29T09:25:38.049Z,2.30
2018-06-29T09:26:38.093Z,2.20
2018-06-29T09:27:38.152Z,1.90
2018-06-29T09:28:38.177Z,1.80
2018-06-29T09:29:38.223Z,1.90
2018-06-29T09:30:38.264Z,2.10
2018-06-29T09:31:38.308Z,1.90
2018-06-29T09:32:38.363Z,1.90
2018-06-29T09:33:38.395Z,1.70
2018-06-29T09:34:38.436Z,2.00
2018-06-29T09:35:38.489Z,1.80
2018-06-29T09:36:38.522Z,1.80
2018-06-29T09:37:38.564Z,1.90
2018-06-29T09:38:38.607Z,1.90
2018-06-29T09:39:38.654Z,1.90
2018-06-29T09:40:38.692Z,2.00
2018-06-29T09:41:38.745Z,1.80
2018-06-29T09:42:38.879Z,2.00
2018-06-29T09:43:38.823Z,1.90
2018-06-29T09:44:38.865Z,1.80
2018-06-29T09:45:38.963Z,1.90
2018-06-29T09:46:38.955Z,1.90
2018-06-29T09:47:38.997Z,2.10
2018-06-29T09:48:39.038Z,2.00
2018-06-29T09:49:39.081Z,1.80
2018-06-29T09:50:39.134Z,1.90
2018-06-29T09:51:39.170Z,1.90
2018-06-29T09:52:39.210Z,1.80
2018-06-29T09:53:39.254Z,2.00
2018-06-29T09:54:39.299Z,1.80
2018-06-29T09:55:39.346Z,1.90
2018-06-29T09:56:39.385Z,1.90
2018-06-29T09:57:39.425Z,2.00
2018-06-29T09:58:39.469Z,2.20
2018-06-29T09:59:39.514Z,1.80
2018-06-29T10:00:39.616Z,2.00
2018-06-29T10:01:39.600Z,2.10
2018-06-29T10:02:39.644Z,2.10
2018-06-29T10:03:39.687Z,2.10
2018-06-29T10:04:39.728Z,2.00
2018-06-29T10:05:39.771Z,2.00
2018-06-29T10:06:39.819Z,1.80
2018-06-29T10:07:39.858Z,1.90
2018-06-29T10:08:39.901Z,1.90
2018-06-29T10:09:39.944Z,2.10
2018-06-29T10:10:39.986Z,1.90
2018-06-29T10:11:40.032Z,1.90
2018-06-29T10:12:40.074Z,1.90
2018-06-29T10:13:40.118Z,1.80
2018-06-29T10:14:40.168Z,1.90
2018-06-29T10:15:40.207Z,1.80
2018-06-29T10:16:40.246Z,2.00
2018-06-29T10:17:40.290Z,1.90
2018-06-29T10:18:40.333Z,2.00
2018-06-29T10:19:40.490Z,2.00
2018-06-29T10:20:40.420Z,1.70
2018-06-29T10:21:40.462Z,2.00
2018-06-29T10:22:40.507Z,2.00
2018-06-29T10:23:40.549Z,2.00
2018-06-29T10:24:40.591Z,2.00
2018-06-29T10:25:40.635Z,1.90
2018-06-29T10:26:40.679Z,1.90
2018-06-29T10:27:40.724Z,2.00
2018-06-29T10:28:40.765Z,2.00
2018-06-29T10:29:40.808Z,1.90
2018-06-29T10:30:40.894Z,2.10
2018-06-29T10:31:40.904Z,2.10
2018-06-29T10:32:40.939Z,2.00
2018-06-29T10:33:40.981Z,1.80
2018-06-29T10:34:41.025Z,1.90
2018-06-29T10:35:41.068Z,2.20
2018-06-29T10:36:41.159Z,2.20
2018-06-29T10:37:41.155Z,1.80
2018-06-29T10:38:41.207Z,1.90
2018-06-29T10:39:41.250Z,1.90
2018-06-29T10:40:41.282Z,1.90
2018-06-29T10:41:41.328Z,1.80
2018-06-29T10:42:41.371Z,1.70
2018-06-29T10:43:41.422Z,2.00
2018-06-29T10:44:41.509Z,2.00
2018-06-29T10:45:41.509Z,1.90
2018-06-29T10:46:41.546Z,1.90
2018-06-29T10:47:41.587Z,1.90
2018-06-29T10:48:41.636Z,2.10
2018-06-29T10:49:41.698Z,1.90
2018-06-29T10:50:41.818Z,1.90
2018-06-29T10:51:41.763Z,1.90
2018-06-29T10:52:41.819Z,1.90
2018-06-29T10:53:41.850Z,1.70
2018-06-29T10:54:41.893Z,1.90
2018-06-29T10:55:41.939Z,2.10
2018-06-29T10:56:41.979Z,2.10
2018-06-29T10:57:42.020Z,1.90
2018-06-29T10:58:42.068Z,2.00
2018-06-29T10:59:42.107Z,1.90
2018-06-29T11:00:42.151Z,2.00
2018-06-29T11:01:42.202Z,2.10
2018-06-29T11:02:42.237Z,1.90
2018-06-29T11:03:42.281Z,1.90
2018-06-29T11:04:42.324Z,1.90
2018-06-29T11:05:42.366Z,2.00
2018-06-29T11:06:42.421Z,2.00
2018-06-29T11:07:42.471Z,1.70
2018-06-29T11:08:42.498Z,1.80
2018-06-29T11:09:42.542Z,1.90
2018-06-29T11:10:42.585Z,2.00
2018-06-29T11:11:42.632Z,2.00
2018-06-29T11:12:42.674Z,2.00
2018-06-29T11:13:42.714Z,2.10
2018-06-29T11:14:42.757Z,2.10
2018-06-29T11:15:42.810Z,2.00
2018-06-29T11:16:42.846Z,2.00
2018-06-29T11:17:42.894Z,1.70
2018-06-29T11:18:42.932Z,2.00
2018-06-29T11:19:42.975Z,1.90
2018-06-29T11:20:43.020Z,2.10
2018-06-29T11:21:43.063Z,1.80
2018-06-29T11:22:43.180Z,2.00
2018-06-29T11:23:43.151Z,2.00
2018-06-29T11:24:43.201Z,2.00
2018-06-29T11:25:43.242Z,2.20
2018-06-29T11:26:43.286Z,2.10
2018-06-29T11:27:43.327Z,2.00
2018-06-29T11:28:43.386Z,2.00
2018-06-29T11:29:43.412Z,2.00
2018-06-29T11:30:43.457Z,1.80
2018-06-29T11:31:43.508Z,2.10
2018-06-29T11:32:43.543Z,2.00
2018-06-29T11:33:43.588Z,1.90
2018-06-29T11:34:43.630Z,1.90
2018-06-29T11:35:43.675Z,2.10
2018-06-29T11:36:43.748Z,1.90
2018-06-29T11:37:43.762Z,1.90
2018-06-29T11:38:43.819Z,1.90
2018-06-29T11:39:43.853Z,1.80
2018-06-29T11:40:43.895Z,1.80
2018-06-29T11:41:43.939Z,1.80
2018-06-29T11:42:43.986Z,1.90
2018-06-29T11:43:44.032Z,1.70
2018-06-29T11:44:44.070Z,1.90
2018-06-29T11:45:44.114Z,2.00
2018-06-29T11:46:44.160Z,1.90
2018-06-29T11:47:44.200Z,2.00
2018-06-29T11:48:44.314Z,2.30
2018-06-29T11:49:44.289Z,2.00
2018-06-29T11:50:44.332Z,1.90
2018-06-29T11:51:44.376Z,2.00
2018-06-29T11:52:44.421Z,1.80
2018-06-29T11:53:44.463Z,2.00
2018-06-29T11:54:44.513Z,1.80
2018-06-29T11:55:44.552Z,1.90
2018-06-29T11:56:44.600Z,1.90
2018-06-29T11:57:44.638Z,2.00
2018-06-29T11:58:44.684Z,2.00
2018-06-29T11:59:44.738Z,1.90
2018-06-29T12:00:44.923Z,1.80
2018-06-29T12:01:44.815Z,1.90
2018-06-29T12:02:44.863Z,1.80
2018-06-29T12:03:44.907Z,1.70
2018-06-29T12:04:44.955Z,1.90
2018-06-29T12:05:45.001Z,1.80
2018-06-29T12:06:45.035Z,2.10
2018-06-29T12:07:45.078Z,1.80
2018-06-29T12:08:45.123Z,1.80
2018-06-29T12:09:45.168Z,1.90
2018-06-29T12:10:45.212Z,1.60
2018-06-29T12:11:45.256Z,1.90
2018-06-29T12:12:45.300Z,1.80
2018-06-29T12:13:45.343Z,2.00
2018-06-29T12:14:45.456Z,1.80
2018-06-29T12:15:45.431Z,2.00
2018-06-29T12:16:45.476Z,1.80
2018-06-29T12:17:45.519Z,1.70
2018-06-29T12:18:45.567Z,1.80
2018-06-29T12:19:45.609Z,1.70
2018-06-29T12:20:45.694Z,1.80
2018-06-29T12:21:45.697Z,2.00
2018-06-29T12:22:45.742Z,1.70
2018-06-29T12:23:45.784Z,1.70
2018-06-29T12:24:45.828Z,1.80
2018-06-29T12:25:45.873Z,1.80
2018-06-29T12:26:45.919Z,1.50
2018-06-29T12:27:45.962Z,1.90
2018-06-29T12:28:46.007Z,1.80
2018-06-29T12:29:46.058Z,1.80
2018-06-29T12:30:46.096Z,1.80
2018-06-29T12:31:46.140Z,1.50
2018-06-29T12:32:46.183Z,1.70
2018-06-29T12:33:46.230Z,1.60
2018-06-29T12:34:46.271Z,1.70
2018-06-29T12:35:46.329Z,1.90
2018-06-29T12:36:46.362Z,1.60
2018-06-29T12:37:46.404Z,1.70
2018-06-29T12:38:46.448Z,1.80
2018-06-29T12:39:46.494Z,2.00
2018-06-29T12:40:46.539Z,1.80
2018-06-29T12:41:46.585Z,1.90
2018-06-29T12:42:46.636Z,1.80
2018-06-29T12:43:46.676Z,2.00
2018-06-29T12:44:46.723Z,2.10
2018-06-29T12:45:46.760Z,1.90
2018-06-29T12:46:46.804Z,2.00
2018-06-29T12:47:46.847Z,2.00
2018-06-29T12:48:46.893Z,1.70
2018-06-29T12:49:46.936Z,1.80
2018-06-29T12:50:46.981Z,1.90
2018-06-29T12:51:47.025Z,1.80
2018-06-29T12:52:47.069Z,1.80
2018-06-29T12:53:47.115Z,1.90
2018-06-29T12:54:47.158Z,1.80
2018-06-29T12:55:47.215Z,1.80
2018-06-29T12:56:47.297Z,1.70
2018-06-29T12:57:47.294Z,2.00
2018-06-29T12:58:47.344Z,1.80
2018-06-29T12:59:47.445Z,2.10
2018-06-29T13:00:47.426Z,1.90
2018-06-29T13:01:47.479Z,1.70
2018-06-29T13:02:47.516Z,1.90
2018-06-29T13:03:47.559Z,1.90
2018-06-29T13:04:47.616Z,1.90
2018-06-29T13:05:47.648Z,1.80
2018-06-29T13:06:47.699Z,1.90
2018-06-29T13:07:47.746Z,1.80
2018-06-29T13:08:47.789Z,2.00
2018-06-29T13:09:47.828Z,1.90
2018-06-29T13:10:47.877Z,1.90
2018-06-29T13:11:47.920Z,1.80
2018-06-29T13:12:47.960Z,1.90
2018-06-29T13:13:48.006Z,1.70
2018-06-29T13:14:48.053Z,1.70
2018-06-29T13:15:48.097Z,1.80
2018-06-29T13:16:48.138Z,2.00
2018-06-29T13:17:48.184Z,1.80
2018-06-29T13:18:48.228Z,2.30